Crest Park, CA (92326)

12:18 PM PDT on May 06, 2015 (GMT -0700)
Lake Arrowhead | | Change Station
CLOSE
Current Station
Personal Weather Station
Location: Twin Peaks, CA
Elevation: 5600 ft
Nearby Weather Stations

Elev 5600 ft 34.24 °N, 117.22 °W | Updated 2 minutes ago

Clear
Clear
41.8 °F
Feels Like 42 °F
N
2.0
Wind Variable Wind from ESE
Gusts 7.0 mph

Today
High -- | Low -- °F
--% Chance of Precip.
Yesterday
High -- | Low -- °F
Precip. -- in
5:54 AM 7:36 PM
Waning Gibbous, 93% visible
Pressure 29.91 in
Visibility 10.0 miles
Clouds Clear
Windchill 42 °F
Dew Point 41 °F
Humidity 95%
Rainfall 0.00 in
Snow Depth Not available.
UV 13 out of 12
Pollen 5.60 out of 12
Air Quality Not available.
Flu Activity Sporadic
METAR KL35 061855Z AUTO 27010KT 10SM CLR 13/M04 A2991 RMK AO2

More Conditions Fewer Conditions

Pressure 29.91 in
Visibility 10.0 miles
Clouds Clear
Windchill 42 °F
Dew Point 41 °F
Humidity 95%
Rainfall 0.00 in
Snow Depth Not available.
UV 13 out of 12
Pollen 5.60 out of 12
Air Quality Not available.
Flu Activity Sporadic
METAR KL35 061855Z AUTO 27010KT 10SM CLR 13/M04 A2991 RMK AO2

More Conditions Fewer Conditions

10-Day Weather Forecast

Almanac

Astronomy

May. 06, 2015 Rise Set
Actual Time
Civil Twilight
Nautical Twilight
Astronomical Twilight
Moon
Length of Visible Light
Length of Day
Tomorrow will be .
, % of the Moon is Illuminated

Today's Extremes

State Highs State Lows

Community

WunderPhotos

Upload Photos

1,818,994 photos uploaded!

WunderBlogs® & News

Nearby

Air Quality

  Air Quality AQ Index Pollutant
Not available.

Snow Depth

Station Depth Elevation

Earthquake Activity

City Distance Mag. Time & Date
Minimum magnitude displayed is 2.5.

Coastal Water Temperatures

Place Temperature

Stations

Nearby Weather Stations

Station Location Temp. Windchill Dew Point Humidity Wind Precip. Elev Updated Type